Vremea mâine în Mihăilești - Romania

Vrei sa afli care e starea vremii acum in Giurgiu - Romania? Dorim sa iti furnizam starea vremii pentru Giurgiu - Romania. Starea vremii Giurgiu - Romania pentru astazi.

Vremea mâine în Mihăilești

Temperatura minimă:
10.3 °C

Temperatura maximă:
23.2 °C

Mâine va fi: Patchy rain nearby
Precipitații: 86 %
Umiditate: 69%
Viteza maximă vânt mâine:
13.3 km/h

Evoluția vremii in Mihăilești pe ore mâine

Ora: 03:00
Temperatura: °C
Sansa de precipitatii: %
Ora Descriere Temp Se simte Precipitatii Umiditate Vant
00:00Senin12.9°12.2°0%76%WSW 9 KM/H
01:00Senin12.2°11.5°0%78%WSW 8.6 KM/H
02:00Senin11.6°11°0%81%WSW 7.6 KM/H
03:00Senin11.2°10.6°0%84%SW 7.6 KM/H
04:00Senin11°10.4°0%85%SW 6.8 KM/H
05:00Senin10.7°10.3°0%87%SW 5.8 KM/H
06:00Senin10.3°9.8°0%88%SSW 6.1 KM/H
07:00Senin11.7°11.5°0%85%SSW 5.8 KM/H
08:00Senin14.2°14.1°0%76%SSW 7.2 KM/H
09:00Senin16.2°16.2°0%70%SSW 8.6 KM/H
10:00Senin18°18°0%64%SSW 10.1 KM/H
11:00Senin19.6°19.6°0%59%S 11.2 KM/H
12:00Senin20.8°20.8°0%55%S 12.2 KM/H
13:00Senin21.9°21.9°0%52%S 13 KM/H
14:0022.6°24.6°0%49%S 13 KM/H
15:00Senin23.1°24.7°0%48%S 12.2 KM/H
16:00Thundery outbreaks in nearby23.2°24.7°100%47%S 11.2 KM/H
17:00Thundery outbreaks in nearby23°24.6°74%47%S 9.7 KM/H
18:00Thundery outbreaks in nearby21.4°21.4°0%55%S 11.2 KM/H
19:00Patchy light rain in area with thunder19.9°19.9°100%62%SSE 13.3 KM/H
20:00Innorat17.4°17.4°0%70%S 11.2 KM/H
21:00Innorat16.2°16.2°0%73%SSE 10.8 KM/H
22:00Thundery outbreaks in nearby15.4°15.4°0%75%SSE 12.6 KM/H
23:00Patchy light rain in area with thunder13.6°13.3°100%82%SE 7.6 KM/H




tutorials